sensor_id;sensor_type;location;lat;lon;timestamp;P1;durP1;ratioP1;P2;durP2;ratioP2
12921;SDS011;6528;48.086;16.282;2023-12-20T00:00:36;8.27;;;7.57;;
12921;SDS011;6528;48.086;16.282;2023-12-20T00:03:04;8.00;;;7.30;;
12921;SDS011;6528;48.086;16.282;2023-12-20T00:05:32;9.23;;;7.33;;
12921;SDS011;6528;48.086;16.282;2023-12-20T00:07:59;8.60;;;7.90;;
12921;SDS011;6528;48.086;16.282;2023-12-20T00:10:27;7.67;;;7.03;;
12921;SDS011;6528;48.086;16.282;2023-12-20T00:12:55;7.83;;;7.23;;
12921;SDS011;6528;48.086;16.282;2023-12-20T00:15:22;7.17;;;6.47;;
12921;SDS011;6528;48.086;16.282;2023-12-20T00:17:49;7.13;;;6.53;;
12921;SDS011;6528;48.086;16.282;2023-12-20T00:20:17;7.50;;;6.80;;
12921;SDS011;6528;48.086;16.282;2023-12-20T00:22:44;7.43;;;6.93;;
12921;SDS011;6528;48.086;16.282;2023-12-20T00:25:12;7.00;;;6.40;;
12921;SDS011;6528;48.086;16.282;2023-12-20T00:27:40;7.87;;;7.20;;
12921;SDS011;6528;48.086;16.282;2023-12-20T00:30:09;6.90;;;6.40;;
12921;SDS011;6528;48.086;16.282;2023-12-20T00:32:37;8.17;;;7.47;;
12921;SDS011;6528;48.086;16.282;2023-12-20T00:35:05;6.70;;;6.10;;
12921;SDS011;6528;48.086;16.282;2023-12-20T00:37:32;7.53;;;6.93;;
12921;SDS011;6528;48.086;16.282;2023-12-20T00:40:00;6.70;;;6.10;;
12921;SDS011;6528;48.086;16.282;2023-12-20T00:42:27;6.70;;;6.10;;
12921;SDS011;6528;48.086;16.282;2023-12-20T00:44:55;6.90;;;6.30;;
12921;SDS011;6528;48.086;16.282;2023-12-20T00:47:22;6.63;;;6.03;;
12921;SDS011;6528;48.086;16.282;2023-12-20T00:49:49;6.53;;;5.93;;
12921;SDS011;6528;48.086;16.282;2023-12-20T00:52:17;6.87;;;6.30;;
12921;SDS011;6528;48.086;16.282;2023-12-20T00:54:45;7.07;;;6.47;;
12921;SDS011;6528;48.086;16.282;2023-12-20T00:57:12;6.90;;;6.40;;
12921;SDS011;6528;48.086;16.282;2023-12-20T00:59:40;6.63;;;6.13;;
12921;SDS011;6528;48.086;16.282;2023-12-20T01:02:07;7.30;;;6.70;;
12921;SDS011;6528;48.086;16.282;2023-12-20T01:04:36;6.50;;;5.90;;
12921;SDS011;6528;48.086;16.282;2023-12-20T01:07:04;6.80;;;6.30;;
12921;SDS011;6528;48.086;16.282;2023-12-20T01:09:31;7.10;;;6.60;;
12921;SDS011;6528;48.086;16.282;2023-12-20T01:11:59;7.33;;;6.73;;
12921;SDS011;6528;48.086;16.282;2023-12-20T01:14:26;6.83;;;6.33;;
12921;SDS011;6528;48.086;16.282;2023-12-20T01:16:53;7.97;;;7.20;;
12921;SDS011;6528;48.086;16.282;2023-12-20T01:19:20;6.93;;;6.43;;
12921;SDS011;6528;48.086;16.282;2023-12-20T01:21:48;6.73;;;6.33;;
12921;SDS011;6528;48.086;16.282;2023-12-20T01:24:15;7.30;;;6.70;;
12921;SDS011;6528;48.086;16.282;2023-12-20T01:26:43;7.60;;;6.90;;
12921;SDS011;6528;48.086;16.282;2023-12-20T01:29:10;7.77;;;7.17;;
12921;SDS011;6528;48.086;16.282;2023-12-20T01:31:38;7.97;;;7.27;;
12921;SDS011;6528;48.086;16.282;2023-12-20T01:34:07;8.03;;;7.30;;
12921;SDS011;6528;48.086;16.282;2023-12-20T01:36:34;7.27;;;6.77;;
12921;SDS011;6528;48.086;16.282;2023-12-20T01:39:02;7.00;;;6.47;;
12921;SDS011;6528;48.086;16.282;2023-12-20T01:41:38;7.23;;;6.63;;
12921;SDS011;6528;48.086;16.282;2023-12-20T01:44:05;7.13;;;6.63;;
12921;SDS011;6528;48.086;16.282;2023-12-20T01:46:33;8.23;;;7.60;;
12921;SDS011;6528;48.086;16.282;2023-12-20T01:49:00;7.37;;;6.87;;
12921;SDS011;6528;48.086;16.282;2023-12-20T01:51:28;7.77;;;7.17;;
12921;SDS011;6528;48.086;16.282;2023-12-20T01:53:56;7.60;;;7.00;;
12921;SDS011;6528;48.086;16.282;2023-12-20T01:56:26;8.57;;;7.87;;
12921;SDS011;6528;48.086;16.282;2023-12-20T01:58:55;7.50;;;6.93;;
12921;SDS011;6528;48.086;16.282;2023-12-20T02:01:24;7.70;;;7.10;;
12921;SDS011;6528;48.086;16.282;2023-12-20T02:03:52;7.53;;;7.03;;
12921;SDS011;6528;48.086;16.282;2023-12-20T02:06:19;8.47;;;7.77;;
12921;SDS011;6528;48.086;16.282;2023-12-20T02:08:50;7.77;;;7.10;;
12921;SDS011;6528;48.086;16.282;2023-12-20T02:11:17;7.30;;;6.70;;
12921;SDS011;6528;48.086;16.282;2023-12-20T02:13:44;7.60;;;7.00;;
12921;SDS011;6528;48.086;16.282;2023-12-20T02:16:12;6.90;;;6.40;;
12921;SDS011;6528;48.086;16.282;2023-12-20T02:18:39;7.33;;;6.80;;
12921;SDS011;6528;48.086;16.282;2023-12-20T02:21:12;7.43;;;6.93;;
12921;SDS011;6528;48.086;16.282;2023-12-20T02:23:39;7.23;;;6.63;;
12921;SDS011;6528;48.086;16.282;2023-12-20T02:26:06;7.67;;;7.07;;
12921;SDS011;6528;48.086;16.282;2023-12-20T02:28:34;6.97;;;6.40;;
12921;SDS011;6528;48.086;16.282;2023-12-20T02:31:02;7.43;;;6.73;;
12921;SDS011;6528;48.086;16.282;2023-12-20T02:33:30;7.87;;;7.27;;
12921;SDS011;6528;48.086;16.282;2023-12-20T02:35:57;7.80;;;7.20;;
12921;SDS011;6528;48.086;16.282;2023-12-20T02:38:24;8.33;;;7.63;;
12921;SDS011;6528;48.086;16.282;2023-12-20T02:40:52;7.80;;;7.10;;
12921;SDS011;6528;48.086;16.282;2023-12-20T02:43:19;7.00;;;6.50;;
12921;SDS011;6528;48.086;16.282;2023-12-20T02:45:46;6.90;;;6.40;;
12921;SDS011;6528;48.086;16.282;2023-12-20T02:48:14;7.20;;;6.60;;
12921;SDS011;6528;48.086;16.282;2023-12-20T02:50:41;7.50;;;6.90;;
12921;SDS011;6528;48.086;16.282;2023-12-20T02:53:09;7.27;;;6.67;;
12921;SDS011;6528;48.086;16.282;2023-12-20T02:55:36;7.90;;;7.10;;
12921;SDS011;6528;48.086;16.282;2023-12-20T02:58:04;7.50;;;7.00;;
12921;SDS011;6528;48.086;16.282;2023-12-20T03:00:31;8.23;;;7.53;;
12921;SDS011;6528;48.086;16.282;2023-12-20T03:02:59;7.90;;;7.30;;
12921;SDS011;6528;48.086;16.282;2023-12-20T03:05:26;7.13;;;6.53;;
12921;SDS011;6528;48.086;16.282;2023-12-20T03:07:54;7.03;;;6.53;;
12921;SDS011;6528;48.086;16.282;2023-12-20T03:10:21;7.63;;;7.03;;
12921;SDS011;6528;48.086;16.282;2023-12-20T03:12:52;6.83;;;6.33;;
12921;SDS011;6528;48.086;16.282;2023-12-20T03:15:20;7.10;;;6.50;;
12921;SDS011;6528;48.086;16.282;2023-12-20T03:17:47;7.10;;;6.57;;
12921;SDS011;6528;48.086;16.282;2023-12-20T03:20:15;8.00;;;7.40;;
12921;SDS011;6528;48.086;16.282;2023-12-20T03:22:43;6.93;;;6.33;;
12921;SDS011;6528;48.086;16.282;2023-12-20T03:25:10;7.43;;;6.93;;
12921;SDS011;6528;48.086;16.282;2023-12-20T03:27:37;7.20;;;6.60;;
12921;SDS011;6528;48.086;16.282;2023-12-20T03:30:05;7.53;;;6.93;;
12921;SDS011;6528;48.086;16.282;2023-12-20T03:32:33;6.30;;;5.80;;
12921;SDS011;6528;48.086;16.282;2023-12-20T03:35:01;6.27;;;5.87;;
12921;SDS011;6528;48.086;16.282;2023-12-20T03:37:28;6.30;;;5.80;;
12921;SDS011;6528;48.086;16.282;2023-12-20T03:39:56;7.50;;;6.80;;
12921;SDS011;6528;48.086;16.282;2023-12-20T03:42:23;7.10;;;6.60;;
12921;SDS011;6528;48.086;16.282;2023-12-20T03:44:51;6.87;;;6.37;;
12921;SDS011;6528;48.086;16.282;2023-12-20T03:47:18;6.90;;;6.40;;
12921;SDS011;6528;48.086;16.282;2023-12-20T03:49:46;7.00;;;6.50;;
12921;SDS011;6528;48.086;16.282;2023-12-20T03:52:13;6.70;;;6.20;;
12921;SDS011;6528;48.086;16.282;2023-12-20T03:54:40;6.70;;;6.20;;
12921;SDS011;6528;48.086;16.282;2023-12-20T03:57:11;6.83;;;6.23;;
12921;SDS011;6528;48.086;16.282;2023-12-20T03:59:38;6.60;;;6.10;;
12921;SDS011;6528;48.086;16.282;2023-12-20T04:02:06;6.27;;;5.77;;
12921;SDS011;6528;48.086;16.282;2023-12-20T04:04:33;7.23;;;6.73;;
12921;SDS011;6528;48.086;16.282;2023-12-20T04:07:00;6.27;;;5.77;;
12921;SDS011;6528;48.086;16.282;2023-12-20T04:09:28;6.13;;;5.70;;
12921;SDS011;6528;48.086;16.282;2023-12-20T04:11:56;6.67;;;6.17;;
12921;SDS011;6528;48.086;16.282;2023-12-20T04:14:23;7.20;;;6.60;;
12921;SDS011;6528;48.086;16.282;2023-12-20T04:16:51;6.50;;;6.00;;
12921;SDS011;6528;48.086;16.282;2023-12-20T04:19:19;6.70;;;6.20;;
12921;SDS011;6528;48.086;16.282;2023-12-20T04:21:47;6.90;;;6.40;;
12921;SDS011;6528;48.086;16.282;2023-12-20T04:24:14;6.33;;;5.73;;
12921;SDS011;6528;48.086;16.282;2023-12-20T04:26:42;5.90;;;5.50;;
12921;SDS011;6528;48.086;16.282;2023-12-20T04:29:09;5.77;;;5.37;;
12921;SDS011;6528;48.086;16.282;2023-12-20T04:31:37;6.60;;;6.10;;
12921;SDS011;6528;48.086;16.282;2023-12-20T04:34:04;6.00;;;5.60;;
12921;SDS011;6528;48.086;16.282;2023-12-20T04:36:32;6.27;;;5.77;;
12921;SDS011;6528;48.086;16.282;2023-12-20T04:38:59;5.87;;;5.40;;
12921;SDS011;6528;48.086;16.282;2023-12-20T04:41:27;6.80;;;6.30;;
12921;SDS011;6528;48.086;16.282;2023-12-20T04:43:54;5.83;;;5.37;;
12921;SDS011;6528;48.086;16.282;2023-12-20T04:46:21;6.27;;;5.87;;
12921;SDS011;6528;48.086;16.282;2023-12-20T04:48:49;5.90;;;5.50;;
12921;SDS011;6528;48.086;16.282;2023-12-20T04:51:17;5.43;;;5.03;;
12921;SDS011;6528;48.086;16.282;2023-12-20T04:53:44;7.10;;;6.43;;
12921;SDS011;6528;48.086;16.282;2023-12-20T04:56:12;5.77;;;5.37;;
12921;SDS011;6528;48.086;16.282;2023-12-20T04:58:39;5.93;;;5.53;;
12921;SDS011;6528;48.086;16.282;2023-12-20T05:01:06;6.30;;;5.90;;
12921;SDS011;6528;48.086;16.282;2023-12-20T05:03:35;6.40;;;5.90;;
12921;SDS011;6528;48.086;16.282;2023-12-20T05:06:03;6.90;;;6.40;;
12921;SDS011;6528;48.086;16.282;2023-12-20T05:08:30;5.83;;;5.37;;
12921;SDS011;6528;48.086;16.282;2023-12-20T05:10:58;6.20;;;5.70;;
12921;SDS011;6528;48.086;16.282;2023-12-20T05:13:25;5.80;;;5.40;;
12921;SDS011;6528;48.086;16.282;2023-12-20T05:16:07;6.30;;;5.80;;
12921;SDS011;6528;48.086;16.282;2023-12-20T05:18:35;6.77;;;6.17;;
12921;SDS011;6528;48.086;16.282;2023-12-20T05:21:02;6.03;;;5.63;;
12921;SDS011;6528;48.086;16.282;2023-12-20T05:23:30;6.30;;;5.90;;
12921;SDS011;6528;48.086;16.282;2023-12-20T05:25:58;6.00;;;5.50;;
12921;SDS011;6528;48.086;16.282;2023-12-20T05:28:25;6.03;;;5.60;;
12921;SDS011;6528;48.086;16.282;2023-12-20T05:30:53;6.40;;;5.90;;
12921;SDS011;6528;48.086;16.282;2023-12-20T05:33:21;6.47;;;5.90;;
12921;SDS011;6528;48.086;16.282;2023-12-20T05:35:48;5.73;;;5.33;;
12921;SDS011;6528;48.086;16.282;2023-12-20T05:38:16;5.70;;;5.30;;
12921;SDS011;6528;48.086;16.282;2023-12-20T05:40:43;5.70;;;5.17;;
12921;SDS011;6528;48.086;16.282;2023-12-20T05:43:11;6.23;;;5.83;;
12921;SDS011;6528;48.086;16.282;2023-12-20T05:45:38;5.53;;;5.13;;
12921;SDS011;6528;48.086;16.282;2023-12-20T05:48:06;5.93;;;5.53;;
12921;SDS011;6528;48.086;16.282;2023-12-20T05:50:33;5.13;;;4.73;;
12921;SDS011;6528;48.086;16.282;2023-12-20T05:53:01;5.83;;;5.43;;
12921;SDS011;6528;48.086;16.282;2023-12-20T05:55:29;5.70;;;5.20;;
12921;SDS011;6528;48.086;16.282;2023-12-20T05:57:56;5.10;;;4.80;;
12921;SDS011;6528;48.086;16.282;2023-12-20T06:00:24;5.27;;;4.87;;
12921;SDS011;6528;48.086;16.282;2023-12-20T06:02:51;4.87;;;4.47;;
12921;SDS011;6528;48.086;16.282;2023-12-20T06:05:19;4.90;;;4.60;;
12921;SDS011;6528;48.086;16.282;2023-12-20T06:07:46;5.40;;;5.00;;
12921;SDS011;6528;48.086;16.282;2023-12-20T06:10:16;4.87;;;4.57;;
12921;SDS011;6528;48.086;16.282;2023-12-20T06:12:44;5.47;;;5.07;;
12921;SDS011;6528;48.086;16.282;2023-12-20T06:15:13;5.10;;;4.70;;
12921;SDS011;6528;48.086;16.282;2023-12-20T06:17:41;4.97;;;4.60;;
12921;SDS011;6528;48.086;16.282;2023-12-20T06:20:09;5.83;;;5.33;;
12921;SDS011;6528;48.086;16.282;2023-12-20T06:22:37;5.63;;;5.23;;
12921;SDS011;6528;48.086;16.282;2023-12-20T06:25:04;4.80;;;4.50;;
12921;SDS011;6528;48.086;16.282;2023-12-20T06:27:33;4.97;;;4.67;;
12921;SDS011;6528;48.086;16.282;2023-12-20T06:30:01;5.43;;;5.03;;
12921;SDS011;6528;48.086;16.282;2023-12-20T06:32:28;5.00;;;4.60;;
12921;SDS011;6528;48.086;16.282;2023-12-20T06:34:55;4.67;;;4.37;;
12921;SDS011;6528;48.086;16.282;2023-12-20T06:37:23;4.97;;;4.67;;
12921;SDS011;6528;48.086;16.282;2023-12-20T06:39:51;4.57;;;4.27;;
12921;SDS011;6528;48.086;16.282;2023-12-20T06:42:18;4.53;;;4.23;;
12921;SDS011;6528;48.086;16.282;2023-12-20T06:44:46;4.90;;;4.50;;
12921;SDS011;6528;48.086;16.282;2023-12-20T06:47:13;4.57;;;4.27;;
12921;SDS011;6528;48.086;16.282;2023-12-20T06:49:40;4.80;;;4.40;;
12921;SDS011;6528;48.086;16.282;2023-12-20T06:52:08;4.30;;;4.00;;
12921;SDS011;6528;48.086;16.282;2023-12-20T06:54:36;4.70;;;3.97;;
12921;SDS011;6528;48.086;16.282;2023-12-20T06:57:03;4.67;;;4.37;;
12921;SDS011;6528;48.086;16.282;2023-12-20T06:59:31;4.17;;;3.87;;
12921;SDS011;6528;48.086;16.282;2023-12-20T07:01:58;4.63;;;4.33;;
12921;SDS011;6528;48.086;16.282;2023-12-20T07:04:26;5.00;;;4.60;;
12921;SDS011;6528;48.086;16.282;2023-12-20T07:06:53;4.30;;;4.00;;
12921;SDS011;6528;48.086;16.282;2023-12-20T07:09:24;5.07;;;4.77;;
12921;SDS011;6528;48.086;16.282;2023-12-20T07:11:52;4.27;;;3.97;;
12921;SDS011;6528;48.086;16.282;2023-12-20T07:14:20;4.77;;;4.37;;
12921;SDS011;6528;48.086;16.282;2023-12-20T07:16:48;4.90;;;4.60;;
12921;SDS011;6528;48.086;16.282;2023-12-20T07:19:15;4.90;;;4.50;;
12921;SDS011;6528;48.086;16.282;2023-12-20T07:21:43;4.40;;;4.10;;
12921;SDS011;6528;48.086;16.282;2023-12-20T07:24:11;4.40;;;4.10;;
12921;SDS011;6528;48.086;16.282;2023-12-20T07:26:39;5.80;;;4.47;;
12921;SDS011;6528;48.086;16.282;2023-12-20T07:29:07;4.90;;;4.40;;
12921;SDS011;6528;48.086;16.282;2023-12-20T07:31:34;5.17;;;4.77;;
12921;SDS011;6528;48.086;16.282;2023-12-20T07:34:01;5.00;;;4.70;;
12921;SDS011;6528;48.086;16.282;2023-12-20T07:36:29;8.43;;;5.70;;
12921;SDS011;6528;48.086;16.282;2023-12-20T07:38:57;9.10;;;5.40;;
12921;SDS011;6528;48.086;16.282;2023-12-20T07:41:24;7.13;;;6.53;;
12921;SDS011;6528;48.086;16.282;2023-12-20T07:43:52;9.10;;;7.37;;
12921;SDS011;6528;48.086;16.282;2023-12-20T07:46:20;7.80;;;7.20;;
12921;SDS011;6528;48.086;16.282;2023-12-20T07:48:51;7.07;;;6.30;;
12921;SDS011;6528;48.086;16.282;2023-12-20T07:51:18;8.67;;;7.20;;
12921;SDS011;6528;48.086;16.282;2023-12-20T07:53:47;8.60;;;7.80;;
12921;SDS011;6528;48.086;16.282;2023-12-20T07:56:15;4.40;;;4.00;;
12921;SDS011;6528;48.086;16.282;2023-12-20T07:58:43;5.87;;;3.33;;
12921;SDS011;6528;48.086;16.282;2023-12-20T08:01:18;3.73;;;3.37;;
12921;SDS011;6528;48.086;16.282;2023-12-20T08:03:48;2.33;;;2.13;;
12921;SDS011;6528;48.086;16.282;2023-12-20T08:06:17;2.60;;;2.40;;
12921;SDS011;6528;48.086;16.282;2023-12-20T08:08:45;2.53;;;2.33;;
12921;SDS011;6528;48.086;16.282;2023-12-20T08:11:23;3.50;;;2.60;;
12921;SDS011;6528;48.086;16.282;2023-12-20T08:13:51;2.57;;;2.37;;
12921;SDS011;6528;48.086;16.282;2023-12-20T08:16:18;2.87;;;2.13;;
12921;SDS011;6528;48.086;16.282;2023-12-20T08:18:45;2.17;;;2.00;;
12921;SDS011;6528;48.086;16.282;2023-12-20T08:21:14;3.60;;;2.20;;
12921;SDS011;6528;48.086;16.282;2023-12-20T08:23:41;2.20;;;1.90;;
12921;SDS011;6528;48.086;16.282;2023-12-20T08:26:08;2.33;;;2.20;;
12921;SDS011;6528;48.086;16.282;2023-12-20T08:28:36;2.30;;;2.20;;
12921;SDS011;6528;48.086;16.282;2023-12-20T08:31:04;2.70;;;2.47;;
12921;SDS011;6528;48.086;16.282;2023-12-20T08:33:31;3.83;;;1.80;;
12921;SDS011;6528;48.086;16.282;2023-12-20T08:35:59;4.50;;;2.00;;
12921;SDS011;6528;48.086;16.282;2023-12-20T08:38:26;2.00;;;1.90;;
12921;SDS011;6528;48.086;16.282;2023-12-20T08:40:54;3.23;;;1.80;;
12921;SDS011;6528;48.086;16.282;2023-12-20T08:43:21;2.10;;;2.00;;
12921;SDS011;6528;48.086;16.282;2023-12-20T08:45:49;2.07;;;1.93;;
12921;SDS011;6528;48.086;16.282;2023-12-20T08:48:17;2.33;;;1.80;;
12921;SDS011;6528;48.086;16.282;2023-12-20T08:50:45;2.50;;;2.30;;
12921;SDS011;6528;48.086;16.282;2023-12-20T08:53:12;2.47;;;2.27;;
12921;SDS011;6528;48.086;16.282;2023-12-20T08:55:40;1.93;;;1.83;;
12921;SDS011;6528;48.086;16.282;2023-12-20T08:58:07;2.27;;;2.07;;
12921;SDS011;6528;48.086;16.282;2023-12-20T09:00:35;1.87;;;1.70;;
12921;SDS011;6528;48.086;16.282;2023-12-20T09:03:03;2.83;;;1.80;;
12921;SDS011;6528;48.086;16.282;2023-12-20T09:05:30;1.83;;;1.70;;
12921;SDS011;6528;48.086;16.282;2023-12-20T09:07:58;2.47;;;2.27;;
12921;SDS011;6528;48.086;16.282;2023-12-20T09:10:25;1.90;;;1.80;;
12921;SDS011;6528;48.086;16.282;2023-12-20T09:12:53;2.03;;;1.87;;
12921;SDS011;6528;48.086;16.282;2023-12-20T09:15:25;2.00;;;1.90;;
12921;SDS011;6528;48.086;16.282;2023-12-20T09:17:53;6.40;;;2.30;;
12921;SDS011;6528;48.086;16.282;2023-12-20T09:20:21;2.37;;;2.17;;
12921;SDS011;6528;48.086;16.282;2023-12-20T09:22:50;2.50;;;2.30;;
12921;SDS011;6528;48.086;16.282;2023-12-20T09:25:17;2.00;;;1.90;;
12921;SDS011;6528;48.086;16.282;2023-12-20T09:27:45;2.23;;;2.03;;
12921;SDS011;6528;48.086;16.282;2023-12-20T09:30:13;2.40;;;2.20;;
12921;SDS011;6528;48.086;16.282;2023-12-20T09:32:53;2.20;;;2.00;;
12921;SDS011;6528;48.086;16.282;2023-12-20T09:35:21;3.07;;;1.90;;
12921;SDS011;6528;48.086;16.282;2023-12-20T09:37:49;2.67;;;2.23;;
12921;SDS011;6528;48.086;16.282;2023-12-20T09:40:19;2.50;;;2.30;;
12921;SDS011;6528;48.086;16.282;2023-12-20T09:42:48;1.80;;;1.70;;
12921;SDS011;6528;48.086;16.282;2023-12-20T09:45:22;2.33;;;2.13;;
12921;SDS011;6528;48.086;16.282;2023-12-20T09:47:54;2.90;;;2.40;;
12921;SDS011;6528;48.086;16.282;2023-12-20T09:50:22;2.70;;;2.27;;
12921;SDS011;6528;48.086;16.282;2023-12-20T09:52:50;3.30;;;2.47;;
12921;SDS011;6528;48.086;16.282;2023-12-20T09:55:19;2.33;;;2.03;;
12921;SDS011;6528;48.086;16.282;2023-12-20T09:57:48;2.57;;;2.37;;
12921;SDS011;6528;48.086;16.282;2023-12-20T10:00:16;2.97;;;2.73;;
12921;SDS011;6528;48.086;16.282;2023-12-20T10:02:50;2.63;;;2.43;;
12921;SDS011;6528;48.086;16.282;2023-12-20T10:05:27;3.10;;;2.20;;
12921;SDS011;6528;48.086;16.282;2023-12-20T10:07:57;2.60;;;2.40;;
12921;SDS011;6528;48.086;16.282;2023-12-20T10:10:26;2.83;;;2.50;;
12921;SDS011;6528;48.086;16.282;2023-12-20T10:13:07;2.10;;;1.53;;
12921;SDS011;6528;48.086;16.282;2023-12-20T10:15:37;4.30;;;2.20;;
12921;SDS011;6528;48.086;16.282;2023-12-20T10:18:05;2.30;;;2.10;;
12921;SDS011;6528;48.086;16.282;2023-12-20T10:20:33;2.40;;;2.20;;
12921;SDS011;6528;48.086;16.282;2023-12-20T10:23:01;2.83;;;2.20;;
12921;SDS011;6528;48.086;16.282;2023-12-20T10:25:29;2.57;;;2.37;;
12921;SDS011;6528;48.086;16.282;2023-12-20T10:28:11;2.90;;;2.23;;
12921;SDS011;6528;48.086;16.282;2023-12-20T10:30:40;2.87;;;2.50;;
12921;SDS011;6528;48.086;16.282;2023-12-20T10:33:09;2.60;;;2.40;;
12921;SDS011;6528;48.086;16.282;2023-12-20T10:35:38;2.40;;;2.20;;
12921;SDS011;6528;48.086;16.282;2023-12-20T10:38:11;2.70;;;2.20;;
12921;SDS011;6528;48.086;16.282;2023-12-20T10:40:41;2.00;;;1.90;;
12921;SDS011;6528;48.086;16.282;2023-12-20T10:43:09;2.00;;;1.87;;
12921;SDS011;6528;48.086;16.282;2023-12-20T10:45:38;3.20;;;2.60;;
12921;SDS011;6528;48.086;16.282;2023-12-20T10:48:05;3.07;;;2.77;;
12921;SDS011;6528;48.086;16.282;2023-12-20T10:50:34;2.07;;;1.97;;
12921;SDS011;6528;48.086;16.282;2023-12-20T10:53:05;2.93;;;2.30;;
12921;SDS011;6528;48.086;16.282;2023-12-20T10:55:33;3.00;;;2.43;;
12921;SDS011;6528;48.086;16.282;2023-12-20T10:58:01;2.40;;;2.10;;
12921;SDS011;6528;48.086;16.282;2023-12-20T11:00:40;2.17;;;2.07;;
12921;SDS011;6528;48.086;16.282;2023-12-20T11:03:11;2.47;;;2.27;;
12921;SDS011;6528;48.086;16.282;2023-12-20T11:05:46;2.10;;;1.90;;
12921;SDS011;6528;48.086;16.282;2023-12-20T11:11:27;2.30;;;1.90;;
12921;SDS011;6528;48.086;16.282;2023-12-20T11:14:07;2.20;;;2.10;;
12921;SDS011;6528;48.086;16.282;2023-12-20T11:16:40;2.13;;;1.90;;
12921;SDS011;6528;48.086;16.282;2023-12-20T11:19:20;2.30;;;2.10;;
12921;SDS011;6528;48.086;16.282;2023-12-20T11:21:48;5.43;;;2.30;;
12921;SDS011;6528;48.086;16.282;2023-12-20T11:24:15;2.60;;;2.40;;
12921;SDS011;6528;48.086;16.282;2023-12-20T11:26:46;2.43;;;2.10;;
12921;SDS011;6528;48.086;16.282;2023-12-20T11:32:27;2.90;;;2.70;;
12921;SDS011;6528;48.086;16.282;2023-12-20T11:37:48;5.93;;;3.80;;
12921;SDS011;6528;48.086;16.282;2023-12-20T11:40:17;6.73;;;3.67;;
12921;SDS011;6528;48.086;16.282;2023-12-20T11:42:46;5.50;;;3.90;;
12921;SDS011;6528;48.086;16.282;2023-12-20T11:45:17;4.97;;;3.57;;
12921;SDS011;6528;48.086;16.282;2023-12-20T11:47:49;7.23;;;3.70;;
12921;SDS011;6528;48.086;16.282;2023-12-20T11:50:18;5.57;;;3.60;;
12921;SDS011;6528;48.086;16.282;2023-12-20T11:52:49;7.00;;;3.90;;
12921;SDS011;6528;48.086;16.282;2023-12-20T11:55:18;4.87;;;3.50;;
12921;SDS011;6528;48.086;16.282;2023-12-20T11:57:46;10.30;;;4.20;;
12921;SDS011;6528;48.086;16.282;2023-12-20T12:00:14;7.20;;;3.97;;
12921;SDS011;6528;48.086;16.282;2023-12-20T12:02:42;6.57;;;3.57;;
12921;SDS011;6528;48.086;16.282;2023-12-20T12:05:12;5.07;;;3.37;;
12921;SDS011;6528;48.086;16.282;2023-12-20T12:07:40;7.30;;;3.93;;
12921;SDS011;6528;48.086;16.282;2023-12-20T12:10:08;6.20;;;4.00;;
12921;SDS011;6528;48.086;16.282;2023-12-20T12:12:35;5.00;;;3.27;;
12921;SDS011;6528;48.086;16.282;2023-12-20T12:15:03;3.67;;;3.33;;
12921;SDS011;6528;48.086;16.282;2023-12-20T12:17:31;9.57;;;3.67;;
12921;SDS011;6528;48.086;16.282;2023-12-20T12:20:05;6.40;;;3.50;;
12921;SDS011;6528;48.086;16.282;2023-12-20T12:22:34;6.57;;;3.10;;
12921;SDS011;6528;48.086;16.282;2023-12-20T12:25:09;7.17;;;3.37;;
12921;SDS011;6528;48.086;16.282;2023-12-20T12:27:41;5.20;;;3.10;;
12921;SDS011;6528;48.086;16.282;2023-12-20T12:30:10;5.77;;;3.93;;
12921;SDS011;6528;48.086;16.282;2023-12-20T12:32:40;9.53;;;3.70;;
12921;SDS011;6528;48.086;16.282;2023-12-20T12:35:08;6.80;;;3.60;;
12921;SDS011;6528;48.086;16.282;2023-12-20T12:37:39;5.97;;;3.70;;
12921;SDS011;6528;48.086;16.282;2023-12-20T12:40:12;4.67;;;3.30;;
12921;SDS011;6528;48.086;16.282;2023-12-20T12:42:42;3.63;;;2.53;;
12921;SDS011;6528;48.086;16.282;2023-12-20T12:45:11;5.80;;;3.30;;
12921;SDS011;6528;48.086;16.282;2023-12-20T12:47:39;4.93;;;3.10;;
12921;SDS011;6528;48.086;16.282;2023-12-20T12:50:06;4.00;;;2.93;;
12921;SDS011;6528;48.086;16.282;2023-12-20T12:52:35;4.10;;;3.27;;
12921;SDS011;6528;48.086;16.282;2023-12-20T12:55:03;6.17;;;3.37;;
12921;SDS011;6528;48.086;16.282;2023-12-20T12:57:31;5.90;;;2.77;;
12921;SDS011;6528;48.086;16.282;2023-12-20T13:00:00;6.30;;;3.40;;
12921;SDS011;6528;48.086;16.282;2023-12-20T13:02:29;5.60;;;3.20;;
12921;SDS011;6528;48.086;16.282;2023-12-20T13:04:57;3.07;;;2.70;;
12921;SDS011;6528;48.086;16.282;2023-12-20T13:07:26;6.37;;;3.67;;
12921;SDS011;6528;48.086;16.282;2023-12-20T13:09:54;3.87;;;2.90;;
12921;SDS011;6528;48.086;16.282;2023-12-20T13:12:21;3.40;;;2.87;;
12921;SDS011;6528;48.086;16.282;2023-12-20T13:14:48;5.67;;;3.00;;
12921;SDS011;6528;48.086;16.282;2023-12-20T13:17:16;3.73;;;3.33;;
12921;SDS011;6528;48.086;16.282;2023-12-20T13:19:44;4.23;;;3.30;;
12921;SDS011;6528;48.086;16.282;2023-12-20T13:22:11;3.83;;;2.33;;
12921;SDS011;6528;48.086;16.282;2023-12-20T13:24:39;3.47;;;3.00;;
12921;SDS011;6528;48.086;16.282;2023-12-20T13:27:07;3.83;;;3.10;;
12921;SDS011;6528;48.086;16.282;2023-12-20T13:29:34;3.03;;;2.33;;
12921;SDS011;6528;48.086;16.282;2023-12-20T13:32:05;3.90;;;2.47;;
12921;SDS011;6528;48.086;16.282;2023-12-20T13:34:33;3.97;;;2.90;;
12921;SDS011;6528;48.086;16.282;2023-12-20T13:37:01;3.87;;;2.40;;
12921;SDS011;6528;48.086;16.282;2023-12-20T13:39:28;5.03;;;2.37;;
12921;SDS011;6528;48.086;16.282;2023-12-20T13:41:58;3.53;;;2.27;;
12921;SDS011;6528;48.086;16.282;2023-12-20T13:44:26;4.80;;;3.03;;
12921;SDS011;6528;48.086;16.282;2023-12-20T13:46:54;3.80;;;2.70;;
12921;SDS011;6528;48.086;16.282;2023-12-20T13:49:21;3.47;;;2.27;;
12921;SDS011;6528;48.086;16.282;2023-12-20T13:51:53;4.10;;;2.60;;
12921;SDS011;6528;48.086;16.282;2023-12-20T13:54:21;4.63;;;2.70;;
12921;SDS011;6528;48.086;16.282;2023-12-20T13:56:49;2.90;;;2.57;;
12921;SDS011;6528;48.086;16.282;2023-12-20T13:59:34;2.53;;;2.30;;
12921;SDS011;6528;48.086;16.282;2023-12-20T14:02:01;4.43;;;3.00;;
12921;SDS011;6528;48.086;16.282;2023-12-20T14:04:30;3.67;;;2.07;;
12921;SDS011;6528;48.086;16.282;2023-12-20T14:07:08;2.90;;;2.30;;
12921;SDS011;6528;48.086;16.282;2023-12-20T14:09:39;2.40;;;2.20;;
12921;SDS011;6528;48.086;16.282;2023-12-20T14:12:13;2.07;;;1.87;;
12921;SDS011;6528;48.086;16.282;2023-12-20T14:14:41;2.63;;;2.40;;
12921;SDS011;6528;48.086;16.282;2023-12-20T14:17:08;2.23;;;2.03;;
12921;SDS011;6528;48.086;16.282;2023-12-20T14:19:36;3.33;;;2.20;;
12921;SDS011;6528;48.086;16.282;2023-12-20T14:22:03;4.67;;;2.00;;
12921;SDS011;6528;48.086;16.282;2023-12-20T14:24:31;3.97;;;2.63;;
12921;SDS011;6528;48.086;16.282;2023-12-20T14:26:59;4.27;;;2.53;;
12921;SDS011;6528;48.086;16.282;2023-12-20T14:29:26;4.43;;;2.37;;
12921;SDS011;6528;48.086;16.282;2023-12-20T14:31:54;3.43;;;1.80;;
12921;SDS011;6528;48.086;16.282;2023-12-20T14:34:22;5.40;;;2.30;;
12921;SDS011;6528;48.086;16.282;2023-12-20T14:36:51;2.70;;;1.90;;
12921;SDS011;6528;48.086;16.282;2023-12-20T14:39:19;2.27;;;2.07;;
12921;SDS011;6528;48.086;16.282;2023-12-20T14:41:47;2.27;;;1.87;;
12921;SDS011;6528;48.086;16.282;2023-12-20T14:44:14;2.43;;;2.00;;
12921;SDS011;6528;48.086;16.282;2023-12-20T14:46:43;2.20;;;2.03;;
12921;SDS011;6528;48.086;16.282;2023-12-20T14:49:10;2.23;;;1.83;;
12921;SDS011;6528;48.086;16.282;2023-12-20T14:51:38;2.40;;;1.77;;
12921;SDS011;6528;48.086;16.282;2023-12-20T14:54:05;2.83;;;2.27;;
12921;SDS011;6528;48.086;16.282;2023-12-20T14:56:37;2.40;;;1.90;;
12921;SDS011;6528;48.086;16.282;2023-12-20T14:59:04;2.60;;;1.73;;
12921;SDS011;6528;48.086;16.282;2023-12-20T15:01:32;3.47;;;2.03;;
12921;SDS011;6528;48.086;16.282;2023-12-20T15:03:59;2.50;;;1.80;;